Startpagina
METAR-TAF:

METAR-TAF

Vliegvelden :

Aeropuerto Internacional de Maiquetía Simón Bolívar

Caracas, Venezuela

breedte: 10-36N, lengte: 066-59W, hoogte: 43 m

Actueel weer

Dit bericht is 50 minuten geleden gemaakt, om 15:02 UTC
Wind 14 kt uit het oostnoordoosten
Temperatuur
Druk 1018 hPa

METAR: SVMI 281502Z AUTO 07014KT NCD ///// Q1018

Tijdstip: 11:52 (15:52 UTC)

Verwachting

Dit bericht is 5 uur en het 52 minuten geleden gemaakt, om 10:00 UTC
Verwachting geldig van 28 om 12 UTC tot 29 om 12 UTC
Wind 9 kt uit het noordoosten
Zicht 10 km of meer
Weinig wolken op 1600 ft
Wijzigt naar
van 28 om 12 UTC tot 28 om 16 UTC
Wind 7 kt uit het oosten
Zicht 10 km of meer
Verspreide wolken op 1600 ft

TAF: SVMI 281000Z 2812/2912 05009KT 9999 FEW016 TX24/16Z TN21/08Z BECMG 2812/2816 08007KT 9999 SCT016

Waarnemingen en weersverwachtingen van meer dan 4000 vliegvelden (METAR en TAF).

De beschikbare stations zijn de gele en rode punten op de kaart.

Ga met uw muis naar het station om de naam te zien.

Klik dan om waarnemingen en weersverwachtingen te zien.

kaart wijzigen: klik op de groene knoppen met een zwart kruis om in te zoomen, op de groene knop met een streepje om uit te zoomen of op de groene pijlen voor aangrenzende kaarten.


METAR-TAF: